Aviation Digital Data Service (ADDS)

Output produced by METARs form (1725 UTC 25 September 2016)
found at http://aviationweather.gov/adds/metars/
 
KSWF 251442Z 2515/2618 34008KT P6SM SKC 
     FM260000 VRB03KT P6SM SKC 
     FM261600 15006KT P6SM FEW250 AMD NOT SKED